CYEN

Estevan Airport

Estevan, Saskatchewan, Canada
METAR CYEN 181300Z AUTO 23008KT 9SM CLR M04/M05 A2975 RMK SLP107
Observed Flight Rules
Dec-18 @ 13:00 UTC (27 minutes ago) Visual Flight Rules
Wind Visibility Clouds
230° at 8 knots 9 miles
  • Clear skies
Temperatures Readings
Current -4°C / 25°F
Dewpoint -5°C / 23°F
Humidity 93%
Altimeter 29.75" Hg
Pressure 1010.7 hPa
Elevation 581
METAR CYEN 181300Z AUTO 23008KT 9SM CLR M04/M05 A2975 RMK SLP107
Observed Flight Rules
Dec-18 @ 13:00 UTC
(27 minutes ago)
VFR
Wind Visibility
230° at 8 knots 9 miles
Clouds
  • Clear skies
Temperature Dewpoint
-4°C / 25°F -5°C / 23°F
Humidity Altimeter Pressure
93% 29.75" Hg 1010.7 hPa